createdAt,value
2023-02-13T00:00:44.585Z,99
2023-02-13T00:05:43.686Z,99
2023-02-13T00:10:43.893Z,99
2023-02-13T00:15:44.530Z,99
2023-02-13T00:20:43.705Z,99
2023-02-13T00:25:43.832Z,99
2023-02-13T00:30:44.129Z,99
2023-02-13T00:35:44.424Z,99
2023-02-13T00:40:44.537Z,99
2023-02-13T00:45:43.720Z,99
2023-02-13T00:50:43.988Z,99
2023-02-13T00:55:44.202Z,99
2023-02-13T01:00:44.519Z,99
2023-02-13T01:05:43.775Z,99
2023-02-13T01:10:43.982Z,99
2023-02-13T01:15:44.202Z,99
2023-02-13T01:20:44.464Z,99
2023-02-13T01:25:44.603Z,99
2023-02-13T01:30:44.740Z,99
2023-02-13T01:35:44.022Z,99
2023-02-13T01:40:44.235Z,99
2023-02-13T01:45:44.383Z,99
2023-02-13T01:50:44.562Z,99
2023-02-13T01:55:43.757Z,99
2023-02-13T02:00:44.115Z,99
2023-02-13T02:05:44.341Z,99
2023-02-13T02:10:44.585Z,99
2023-02-13T02:15:43.836Z,99
2023-02-13T02:20:44.307Z,99
2023-02-13T02:25:43.823Z,99
2023-02-13T02:30:47.689Z,99
2023-02-13T02:35:43.805Z,99
2023-02-13T02:40:44.057Z,99
2023-02-13T02:45:44.267Z,99
2023-02-13T02:50:44.328Z,99
2023-02-13T02:55:44.557Z,99
2023-02-13T03:00:44.682Z,99
2023-02-13T03:05:46.665Z,99
2023-02-13T03:10:44.552Z,99
2023-02-13T03:15:45.187Z,99
2023-02-13T03:20:44.115Z,99
2023-02-13T03:25:44.295Z,99
2023-02-13T03:30:44.581Z,99
2023-02-13T03:35:44.621Z,99
2023-02-13T03:40:44.388Z,99
2023-02-13T03:45:44.107Z,99
2023-02-13T03:50:44.729Z,99
2023-02-13T03:55:44.468Z,99
2023-02-13T04:00:44.848Z,99
2023-02-13T04:05:44.293Z,99
2023-02-13T04:10:44.232Z,99
2023-02-13T04:15:44.351Z,99
2023-02-13T04:20:44.741Z,99
2023-02-13T04:25:44.084Z,99
2023-02-13T04:30:44.317Z,99
2023-02-13T04:35:44.041Z,99
2023-02-13T04:40:44.234Z,99
2023-02-13T04:45:44.347Z,99
2023-02-13T04:50:44.660Z,99
2023-02-13T04:55:44.786Z,99
2023-02-13T05:00:43.958Z,99
2023-02-13T05:05:44.150Z,99
2023-02-13T05:10:44.389Z,99
2023-02-13T05:15:44.483Z,99
2023-02-13T05:20:44.734Z,99
2023-02-13T05:25:43.937Z,99
2023-02-13T05:30:43.975Z,99
2023-02-13T05:35:43.961Z,99
2023-02-13T05:40:44.062Z,99
2023-02-13T05:45:44.199Z,99
2023-02-13T05:50:44.291Z,99
2023-02-13T05:55:44.350Z,99
2023-02-13T06:00:44.409Z,99
2023-02-13T06:05:44.660Z,99
2023-02-13T06:10:45.247Z,99
2023-02-13T06:15:44.606Z,99
2023-02-13T06:20:44.835Z,99
2023-02-13T06:25:44.069Z,99
2023-02-13T06:30:44.305Z,99
2023-02-13T06:35:44.409Z,99
2023-02-13T06:40:44.578Z,99
2023-02-13T06:45:44.157Z,99
2023-02-13T06:50:44.427Z,99
2023-02-13T06:55:44.634Z,99
2023-02-13T07:00:44.893Z,99
2023-02-13T07:05:44.353Z,99
2023-02-13T07:10:44.540Z,99
2023-02-13T07:15:44.696Z,99
2023-02-13T07:20:43.942Z,99
2023-02-13T07:25:44.026Z,99
2023-02-13T07:30:44.182Z,98
2023-02-13T07:35:44.414Z,98
2023-02-13T07:40:44.546Z,98
2023-02-13T07:45:44.764Z,98
2023-02-13T07:50:44.863Z,98
2023-02-13T07:55:43.939Z,98
2023-02-13T08:00:44.010Z,98
2023-02-13T08:05:44.071Z,98
2023-02-13T08:10:44.665Z,98
2023-02-13T08:15:43.944Z,98
2023-02-13T08:20:44.430Z,98
2023-02-13T08:25:44.516Z,98
2023-02-13T08:30:44.670Z,98
2023-02-13T08:35:44.812Z,98
2023-02-13T08:40:44.816Z,98
2023-02-13T08:45:44.035Z,98
2023-02-13T08:50:44.160Z,98
2023-02-13T08:55:44.422Z,98
2023-02-13T09:00:44.567Z,98
2023-02-13T09:05:44.783Z,98
2023-02-13T09:10:44.944Z,98
2023-02-13T09:15:44.082Z,98
2023-02-13T09:20:44.155Z,98
2023-02-13T09:25:44.245Z,98
2023-02-13T09:30:44.462Z,98
2023-02-13T09:35:44.981Z,98
2023-02-13T09:40:44.465Z,98
2023-02-13T09:45:44.442Z,98
2023-02-13T09:50:44.106Z,98
2023-02-13T09:55:44.330Z,98
2023-02-13T10:00:44.327Z,97
2023-02-13T10:05:44.990Z,97
2023-02-13T10:10:44.236Z,97
2023-02-13T10:15:44.377Z,97
2023-02-13T10:20:44.780Z,97
2023-02-13T10:25:44.814Z,97
2023-02-13T10:30:44.879Z,97
2023-02-13T10:35:44.196Z,97
2023-02-13T10:40:44.373Z,97
2023-02-13T10:45:44.387Z,97
2023-02-13T10:50:44.610Z,97
2023-02-13T10:55:44.735Z,97
2023-02-13T11:00:44.840Z,96
2023-02-13T11:05:44.959Z,96
2023-02-13T11:10:44.038Z,96
2023-02-13T11:15:44.153Z,96
2023-02-13T11:20:44.224Z,95
2023-02-13T11:25:44.416Z,95
2023-02-13T11:30:44.506Z,95
2023-02-13T11:35:44.552Z,95
2023-02-13T11:40:44.720Z,94
2023-02-13T11:45:44.797Z,94
2023-02-13T11:50:44.188Z,93
2023-02-13T11:55:44.404Z,93
2023-02-13T12:00:44.455Z,93
2023-02-13T12:05:44.709Z,93
2023-02-13T12:10:44.943Z,92
2023-02-13T12:15:44.933Z,92
2023-02-13T12:20:44.955Z,91
2023-02-13T12:25:44.985Z,91
2023-02-13T12:30:45.248Z,91
2023-02-13T12:35:44.695Z,91
2023-02-13T12:40:44.893Z,90
2023-02-13T12:45:44.982Z,90
2023-02-13T12:50:44.205Z,90
2023-02-13T12:55:44.526Z,90
2023-02-13T13:00:44.914Z,89
2023-02-13T13:05:45.258Z,89
2023-02-13T13:10:44.787Z,89
2023-02-13T13:15:44.796Z,89
2023-02-13T13:20:44.764Z,89
2023-02-13T13:25:44.876Z,89
2023-02-13T13:30:44.849Z,88
2023-02-13T13:35:45.082Z,88
2023-02-13T13:40:44.544Z,88
2023-02-13T13:45:44.639Z,88
2023-02-13T13:50:44.851Z,87
2023-02-13T13:55:44.961Z,87
2023-02-13T14:00:45.078Z,87
2023-02-13T14:05:44.136Z,87
2023-02-13T14:10:44.228Z,87
2023-02-13T14:15:44.462Z,87
2023-02-13T14:20:44.827Z,87
2023-02-13T14:25:44.866Z,87
2023-02-13T14:30:44.998Z,86
2023-02-13T14:35:44.231Z,86
2023-02-13T14:40:44.354Z,86
2023-02-13T14:45:44.399Z,86
2023-02-13T14:50:44.751Z,86
2023-02-13T14:55:45.034Z,86
2023-02-13T15:00:45.065Z,86
2023-02-13T15:05:44.493Z,86
2023-02-13T15:10:44.825Z,86
2023-02-13T15:15:45.018Z,86
2023-02-13T15:20:44.516Z,86
2023-02-13T15:25:44.977Z,86
2023-02-13T15:30:44.675Z,86
2023-02-13T15:35:44.290Z,86
2023-02-13T15:40:45.149Z,85
2023-02-13T15:45:45.152Z,85
2023-02-13T15:50:44.652Z,85
2023-02-13T15:55:44.700Z,85
2023-02-13T16:00:44.951Z,85
2023-02-13T16:05:44.385Z,85
2023-02-13T16:10:44.775Z,86
2023-02-13T16:15:44.996Z,86
2023-02-13T16:20:45.109Z,86
2023-02-13T16:25:44.490Z,86
2023-02-13T16:30:44.604Z,86
2023-02-13T16:35:45.060Z,86
2023-02-13T16:40:44.464Z,86
2023-02-13T16:45:45.064Z,86
2023-02-13T16:50:45.233Z,86
2023-02-13T16:55:44.228Z,86
2023-02-13T17:00:45.329Z,86
2023-02-13T17:05:44.613Z,86
2023-02-13T17:10:44.925Z,87
2023-02-13T17:15:44.915Z,87
2023-02-13T17:20:44.981Z,87
2023-02-13T17:25:45.031Z,87
2023-02-13T17:30:45.048Z,87
2023-02-13T17:35:45.156Z,87
2023-02-13T17:40:44.330Z,87
2023-02-13T17:45:45.260Z,87
2023-02-13T17:50:44.424Z,87
2023-02-13T17:55:44.694Z,87
2023-02-13T18:00:44.890Z,87
2023-02-13T18:05:44.896Z,87
2023-02-13T18:10:44.960Z,87
2023-02-13T18:15:45.041Z,87
2023-02-13T18:20:45.275Z,87
2023-02-13T18:25:44.471Z,87
2023-02-13T18:30:44.833Z,87
2023-02-13T18:35:45.005Z,87
2023-02-13T18:40:45.097Z,87
2023-02-13T18:45:45.122Z,87
2023-02-13T18:50:45.026Z,87
2023-02-13T18:55:44.880Z,87
2023-02-13T19:00:44.864Z,87
2023-02-13T19:05:44.715Z,87
2023-02-13T19:10:45.324Z,87
2023-02-13T19:15:44.350Z,87
2023-02-13T19:20:44.396Z,87
2023-02-13T19:25:44.460Z,87
2023-02-13T19:30:44.788Z,88
2023-02-13T19:35:44.825Z,88
2023-02-13T19:40:44.860Z,88
2023-02-13T19:45:45.015Z,88
2023-02-13T19:50:44.994Z,88
2023-02-13T19:55:45.093Z,88
2023-02-13T20:00:45.330Z,88
2023-02-13T20:05:44.368Z,88
2023-02-13T20:10:44.602Z,88
2023-02-13T20:15:44.680Z,88
2023-02-13T20:20:44.794Z,88
2023-02-13T20:25:44.700Z,88
2023-02-13T20:30:45.131Z,88
2023-02-13T20:35:44.487Z,88
2023-02-13T20:40:44.619Z,88
2023-02-13T20:45:44.800Z,88
2023-02-13T20:50:44.964Z,88
2023-02-13T20:55:45.154Z,88
2023-02-13T21:00:44.819Z,88
2023-02-13T21:05:44.751Z,88
2023-02-13T21:10:44.989Z,88
2023-02-13T21:15:45.042Z,88
2023-02-13T21:20:45.167Z,88
2023-02-13T21:25:45.410Z,88
2023-02-13T21:30:45.249Z,88
2023-02-13T21:35:45.256Z,88
2023-02-13T21:40:45.429Z,89
2023-02-13T21:45:44.633Z,89
2023-02-13T21:50:44.906Z,89
2023-02-13T21:55:45.356Z,89
2023-02-13T22:00:45.088Z,89
2023-02-13T22:05:44.652Z,89
2023-02-13T22:10:45.346Z,88
2023-02-13T22:15:44.520Z,88
2023-02-13T22:20:44.648Z,88
2023-02-13T22:25:44.610Z,88
2023-02-13T22:30:44.817Z,89
2023-02-13T22:35:45.119Z,89
2023-02-13T22:40:45.589Z,89
2023-02-13T22:45:44.791Z,89
2023-02-13T22:50:45.196Z,89
2023-02-13T22:55:45.391Z,89
2023-02-13T23:00:45.463Z,89
2023-02-13T23:05:44.756Z,89
2023-02-13T23:10:45.271Z,89
2023-02-13T23:15:45.380Z,89
2023-02-13T23:20:44.735Z,88
2023-02-13T23:25:44.908Z,88
2023-02-13T23:30:45.227Z,88
2023-02-13T23:35:44.585Z,88
2023-02-13T23:40:44.842Z,89
2023-02-13T23:45:44.926Z,89
2023-02-13T23:55:45.343Z,89
